Time;durP1;ratioP1;P1;durP2;ratioP2;P2;SDS_P1;SDS_P2;PMS_P1;PMS_P2;Temp;Humidity;BMP_temperature;BMP_pressure;BME280_temperature;BME280_humidity;BME280_pressure;Samples;Min_cycle;Max_cycle;Signal;HPM_P1;HPM_P2
2022/08/13 00:00:21;;;;;;;5.40;2.10;;;25.20;99.90;;;;;;5054138;28;20122;-70
2022/08/13 00:02:47;;;;;;;7.50;2.58;;;25.30;99.90;;;;;;5054239;28;20035;-70
2022/08/13 00:05:14;;;;;;;7.35;2.20;;;25.20;99.90;;;;;;5052455;28;20075;-70
2022/08/13 00:07:40;;;;;;;7.53;2.50;;;25.10;99.90;;;;;;5054286;28;20075;-71
2022/08/13 00:10:10;;;;;;;6.63;2.58;;;25.10;99.90;;;;;;5053953;28;20122;-70
2022/08/13 00:15:30;;;;;;;;;;;25.00;99.90;;;;;;5054619;28;20036;-70
2022/08/13 00:18:09;;;;;;;4.57;2.40;;;25.10;99.90;;;;;;5054012;28;19904;-70
2022/08/13 00:20:50;;;;;;;7.13;2.67;;;25.10;99.90;;;;;;5053996;28;20029;-70
2022/08/13 00:23:19;;;;;;;8.13;2.60;;;25.20;99.90;;;;;;5053734;28;20111;-70
2022/08/13 00:25:48;;;;;;;6.82;2.67;;;25.10;99.90;;;;;;5051684;28;20060;-70
2022/08/13 00:28:19;;;;;;;4.57;2.60;;;25.20;99.90;;;;;;5053766;28;20099;-70
2022/08/13 00:30:46;;;;;;;5.05;2.90;;;25.10;99.90;;;;;;5053376;28;20326;-70
2022/08/13 00:33:17;;;;;;;6.68;2.78;;;25.00;99.90;;;;;;5053332;28;20132;-70
2022/08/13 00:35:47;;;;;;;6.20;2.75;;;25.00;99.90;;;;;;5053619;28;20021;-70
2022/08/13 00:38:16;;;;;;;7.10;2.78;;;25.00;99.90;;;;;;5053651;28;20021;-70
2022/08/13 00:40:45;;;;;;;5.60;3.00;;;25.00;99.90;;;;;;5053312;28;20032;-70
2022/08/13 00:43:11;;;;;;;5.85;2.70;;;25.00;99.90;;;;;;5053452;28;20079;-71
2022/08/13 00:45:37;;;;;;;7.25;2.72;;;25.00;99.90;;;;;;5053198;28;20056;-70
2022/08/13 00:50:51;;;;;;;7.47;3.00;;;25.00;99.90;;;;;;5052894;28;20039;-70
2022/08/13 00:53:18;;;;;;;6.18;2.83;;;25.00;99.90;;;;;;5053067;28;20338;-70
2022/08/13 00:55:49;;;;;;;5.93;2.30;;;24.90;99.90;;;;;;5053362;28;20021;-70
2022/08/13 00:58:21;;;;;;;9.88;3.05;;;24.90;99.90;;;;;;5053179;28;20036;-70
2022/08/13 01:00:52;;;;;;;5.15;2.97;;;24.90;99.90;;;;;;5052325;28;20025;-70
2022/08/13 01:03:19;;;;;;;6.18;3.00;;;24.80;99.90;;;;;;5053313;28;20030;-70
2022/08/13 01:05:49;;;;;;;5.10;2.75;;;24.80;99.90;;;;;;5052873;28;20388;-71
2022/08/13 01:08:17;;;;;;;7.60;3.20;;;24.80;99.90;;;;;;5052644;28;20090;-70
2022/08/13 01:10:45;;;;;;;5.55;3.00;;;24.70;99.90;;;;;;5053202;28;20044;-70
2022/08/13 01:13:13;;;;;;;6.93;3.03;;;24.60;99.90;;;;;;5052663;28;20428;-70
2022/08/13 01:15:41;;;;;;;6.43;2.88;;;24.50;99.90;;;;;;5052489;28;20079;-71
2022/08/13 01:18:13;;;;;;;6.35;2.90;;;24.40;99.90;;;;;;5052515;28;20029;-70
2022/08/13 01:20:58;;;;;;;9.95;2.90;;;24.40;99.90;;;;;;5052833;28;20048;-71
2022/08/13 01:23:25;;;;;;;5.80;2.70;;;24.40;99.90;;;;;;5052677;28;20024;-70
2022/08/13 01:25:54;;;;;;;6.63;2.60;;;24.40;99.90;;;;;;5052528;28;20128;-71
2022/08/13 01:28:23;;;;;;;4.72;2.50;;;24.40;99.90;;;;;;5052279;28;20068;-71
2022/08/13 01:30:51;;;;;;;9.10;2.60;;;24.40;99.90;;;;;;5052144;28;20025;-71
2022/08/13 01:33:18;;;;;;;5.53;3.08;;;24.40;99.90;;;;;;5052304;28;20029;-70
2022/08/13 01:35:46;;;;;;;5.40;2.40;;;24.40;99.90;;;;;;5050639;28;20437;-71
2022/08/13 01:38:13;;;;;;;6.90;2.80;;;24.40;99.90;;;;;;5052444;28;20061;-71
2022/08/13 01:40:39;;;;;;;5.30;2.55;;;24.40;99.90;;;;;;5052183;28;20508;-71
2022/08/13 01:43:08;;;;;;;5.95;2.70;;;24.40;99.90;;;;;;5052076;28;20044;-71
2022/08/13 01:45:35;;;;;;;5.50;2.50;;;24.50;99.90;;;;;;5052120;28;20107;-71
2022/08/13 01:50:47;;;;;;;5.47;2.47;;;24.60;99.90;;;;;;5052233;28;20444;-71
2022/08/13 01:53:16;;;;;;;5.90;2.60;;;24.60;99.90;;;;;;5052002;28;20059;-70
2022/08/13 01:55:52;;;;;;;4.53;2.20;;;24.60;99.90;;;;;;5050757;28;20013;-71
2022/08/13 01:58:20;;;;;;;;;;;24.60;99.90;;;;;;5052730;28;20462;-70
2022/08/13 02:00:52;;;;;;;5.13;2.17;;;24.60;99.90;;;;;;5051755;28;19948;-70
2022/08/13 02:03:19;;;;;;;5.85;2.40;;;24.60;99.90;;;;;;5051852;28;20027;-70
2022/08/13 02:05:47;;;;;;;5.00;2.17;;;24.60;99.90;;;;;;5051784;28;20048;-69
2022/08/13 02:08:18;;;;;;;7.60;2.40;;;24.60;99.90;;;;;;5051638;28;20036;-70
2022/08/13 02:10:46;;;;;;;7.35;2.63;;;24.60;99.90;;;;;;5051781;28;20021;-70
2022/08/13 02:13:15;;;;;;;7.20;2.53;;;24.70;99.90;;;;;;5050583;28;20033;-70
2022/08/13 02:15:43;;;;;;;5.97;2.30;;;24.70;99.90;;;;;;5051495;28;20065;-70
2022/08/13 02:18:17;;;;;;;3.53;2.00;;;24.70;99.90;;;;;;5051892;28;20127;-70
2022/08/13 02:20:52;;;;;;;5.03;2.40;;;24.70;99.90;;;;;;5051523;28;20025;-70
2022/08/13 02:23:25;;;;;;;5.60;2.25;;;24.80;99.90;;;;;;5051543;28;20063;-70
2022/08/13 02:25:52;;;;;;;7.63;2.65;;;24.80;99.90;;;;;;5051044;28;20079;-70
2022/08/13 02:28:21;;;;;;;3.95;2.33;;;24.80;99.90;;;;;;5051060;28;20033;-71
2022/08/13 02:30:49;;;;;;;10.52;2.55;;;24.70;99.90;;;;;;5050370;28;20029;-69
2022/08/13 02:33:15;;;;;;;7.80;2.72;;;24.70;99.90;;;;;;5050571;28;20473;-70
2022/08/13 02:35:45;;;;;;;;;;;24.70;99.90;;;;;;5051491;28;20029;-70
2022/08/13 02:38:12;;;;;;;10.68;2.42;;;24.70;99.90;;;;;;5051036;28;19935;-71
2022/08/13 02:43:31;;;;;;;5.97;2.55;;;24.80;99.90;;;;;;5050191;28;20094;-70
2022/08/13 02:46:00;;;;;;;6.63;2.67;;;24.80;99.90;;;;;;5050108;28;20036;-70
2022/08/13 02:48:26;;;;;;;7.43;2.60;;;24.80;99.90;;;;;;5049808;28;20139;-70
2022/08/13 02:50:55;;;;;;;4.70;2.10;;;24.70;99.90;;;;;;5050279;28;20112;-70
2022/08/13 02:53:23;;;;;;;6.40;2.38;;;24.80;99.90;;;;;;5049985;28;20567;-70
2022/08/13 02:55:50;;;;;;;4.13;2.38;;;24.70;99.90;;;;;;5050253;28;20466;-70
2022/08/13 02:58:17;;;;;;;4.53;2.30;;;24.70;99.90;;;;;;5050934;28;20032;-71
2022/08/13 03:00:48;;;;;;;9.30;2.65;;;24.70;99.90;;;;;;5049659;28;20021;-70
2022/08/13 03:03:16;;;;;;;7.50;2.50;;;24.60;99.90;;;;;;5051319;28;20027;-70
2022/08/13 03:05:42;;;;;;;7.38;2.45;;;24.60;99.90;;;;;;5051436;28;20060;-70
2022/08/13 03:08:08;;;;;;;7.60;2.90;;;24.50;99.90;;;;;;5051339;28;20067;-70
2022/08/13 03:10:34;;;;;;;7.03;2.88;;;24.50;99.90;;;;;;5050914;28;20021;-70
2022/08/13 03:13:15;;;;;;;4.72;2.15;;;24.40;99.90;;;;;;5051263;28;20079;-70
2022/08/13 03:15:44;;;;;;;7.78;2.40;;;24.40;99.90;;;;;;5051304;28;20079;-70
2022/08/13 03:18:11;;;;;;;9.98;2.80;;;24.40;99.90;;;;;;5051302;28;20493;-70
2022/08/13 03:20:41;;;;;;;5.15;2.83;;;24.40;99.90;;;;;;5051527;28;20133;-70
2022/08/13 03:23:08;;;;;;;8.27;2.60;;;24.40;99.90;;;;;;5050633;28;20021;-71
2022/08/13 03:25:36;;;;;;;5.78;2.60;;;24.40;99.90;;;;;;5054453;28;20556;-70
2022/08/13 03:28:03;;;;;;;4.45;2.40;;;24.30;99.90;;;;;;5055472;28;20064;-70
2022/08/13 03:30:34;;;;;;;5.65;2.70;;;24.40;99.90;;;;;;5055209;28;20504;-71
2022/08/13 03:33:13;;;;;;;6.53;2.60;;;24.40;99.90;;;;;;5055362;28;20442;-70
2022/08/13 03:35:41;;;;;;;5.15;2.60;;;24.40;99.90;;;;;;5055236;28;20051;-70
2022/08/13 03:38:12;;;;;;;5.25;2.65;;;24.40;99.90;;;;;;5054777;28;20037;-71
2022/08/13 03:43:23;;;;;;;4.68;2.50;;;24.40;99.90;;;;;;5054979;28;20036;-70
2022/08/13 03:45:50;;;;;;;;;;;24.40;99.90;;;;;;5055165;28;20067;-70
2022/08/13 03:48:16;;;;;;;5.18;2.33;;;24.30;99.90;;;;;;5054884;28;19916;-71
2022/08/13 03:50:44;;;;;;;6.20;2.70;;;24.30;99.90;;;;;;5054862;28;20017;-70
2022/08/13 03:53:12;;;;;;;6.13;2.80;;;24.30;99.90;;;;;;5054667;28;20056;-70
2022/08/13 03:55:39;;;;;;;7.65;2.83;;;24.30;99.90;;;;;;5054627;28;20025;-71
2022/08/13 03:58:06;;;;;;;5.50;2.65;;;24.40;99.90;;;;;;5054590;28;20029;-71
2022/08/13 04:00:36;;;;;;;5.95;2.53;;;24.40;99.90;;;;;;5054761;28;20047;-70
2022/08/13 04:03:16;;;;;;;6.13;2.72;;;24.30;99.90;;;;;;5054351;28;20028;-70
2022/08/13 04:05:43;;;;;;;11.20;2.90;;;24.40;99.90;;;;;;5054609;28;20070;-71
2022/08/13 04:08:10;;;;;;;6.53;2.90;;;24.40;99.90;;;;;;5054656;28;20107;-71
2022/08/13 04:10:37;;;;;;;;;;;24.40;99.90;;;;;;5054430;28;20043;-70
2022/08/13 04:13:04;;;;;;;9.00;2.67;;;24.50;99.90;;;;;;5054695;28;20368;-70
2022/08/13 04:15:31;;;;;;;5.90;2.92;;;24.50;99.90;;;;;;5054449;28;20024;-70
2022/08/13 04:17:57;;;;;;;4.25;2.50;;;24.60;99.90;;;;;;5055204;28;20025;-70
2022/08/13 04:20:23;;;;;;;6.85;2.53;;;24.60;99.90;;;;;;5054668;28;20099;-70
2022/08/13 04:22:49;;;;;;;3.95;2.50;;;24.60;99.90;;;;;;5054734;28;20032;-70
2022/08/13 04:25:16;;;;;;;9.25;2.72;;;24.60;99.90;;;;;;5053380;28;20032;-70
2022/08/13 04:27:42;;;;;;;7.10;2.92;;;24.50;99.90;;;;;;5054420;28;20048;-71
2022/08/13 04:30:08;;;;;;;7.28;3.05;;;24.60;99.90;;;;;;5054601;28;20355;-70
2022/08/13 04:32:45;;;;;;;7.57;2.85;;;24.60;99.90;;;;;;5054613;28;20106;-71
2022/08/13 04:35:12;;;;;;;9.70;2.72;;;24.60;99.90;;;;;;5054441;28;20029;-70
2022/08/13 04:37:38;;;;;;;7.63;2.55;;;24.70;99.90;;;;;;5054062;28;20088;-71
2022/08/13 04:40:06;;;;;;;8.98;3.42;;;24.70;99.90;;;;;;5054789;28;20033;-71
2022/08/13 04:42:48;;;;;;;12.25;5.65;;;24.80;99.90;;;;;;5054717;28;20029;-71
2022/08/13 04:45:14;;;;;;;15.90;11.27;;;24.70;99.90;;;;;;5054961;28;20025;-70
2022/08/13 04:47:42;;;;;;;16.63;8.98;;;24.60;99.90;;;;;;5055107;28;20539;-70
2022/08/13 04:50:10;;;;;;;17.67;8.38;;;24.40;99.90;;;;;;5055254;28;20025;-70
2022/08/13 04:52:37;;;;;;;15.52;8.38;;;24.40;99.90;;;;;;5055069;28;20101;-71
2022/08/13 04:55:04;;;;;;;13.43;7.30;;;24.40;99.90;;;;;;5053297;28;20025;-70
2022/08/13 04:57:30;;;;;;;9.43;5.28;;;24.30;99.90;;;;;;5054722;28;20068;-70
2022/08/13 04:59:56;;;;;;;8.25;4.50;;;24.40;99.90;;;;;;5054412;28;20393;-70
2022/08/13 05:02:25;;;;;;;7.03;4.35;;;24.30;99.90;;;;;;5053031;28;20033;-70
2022/08/13 05:04:52;;;;;;;8.38;4.30;;;24.30;99.90;;;;;;5053002;28;20361;-70
2022/08/13 05:07:18;;;;;;;11.00;3.38;;;24.20;99.90;;;;;;5052902;28;20044;-70
2022/08/13 05:09:45;;;;;;;5.88;3.28;;;24.30;99.90;;;;;;5054236;28;20029;-70
2022/08/13 05:12:11;;;;;;;6.40;3.22;;;24.40;99.90;;;;;;5053772;28;20099;-71
2022/08/13 05:14:37;;;;;;;8.73;2.80;;;24.40;99.90;;;;;;5053499;28;20021;-71
2022/08/13 05:17:04;;;;;;;6.30;2.88;;;24.50;99.90;;;;;;5053383;28;20115;-71
2022/08/13 05:19:30;;;;;;;6.78;3.35;;;24.70;99.90;;;;;;5053346;28;20113;-70
2022/08/13 05:21:56;;;;;;;6.47;3.88;;;25.40;99.90;;;;;;5053343;28;20034;-71
2022/08/13 05:24:22;;;;;;;7.63;3.45;;;26.70;99.90;;;;;;5053844;28;20485;-71
2022/08/13 05:26:49;;;;;;;6.78;3.30;;;28.40;99.90;;;;;;5053607;28;20076;-71
2022/08/13 05:29:15;;;;;;;10.15;3.38;;;30.00;99.90;;;;;;5051959;28;20028;-71
2022/08/13 05:31:41;;;;;;;6.97;3.28;;;31.40;99.90;;;;;;5051781;28;20055;-71
2022/08/13 05:34:07;;;;;;;;;;;32.80;99.90;;;;;;5053758;28;20021;-71
2022/08/13 05:36:33;;;;;;;4.53;2.45;;;33.90;98.80;;;;;;5052003;28;19954;-71
2022/08/13 05:38:59;;;;;;;5.35;2.30;;;34.90;97.00;;;;;;5053478;28;20021;-71
2022/08/13 05:41:27;;;;;;;8.85;2.80;;;35.70;95.70;;;;;;5052920;28;20029;-71
2022/08/13 05:43:55;;;;;;;5.00;2.08;;;35.80;94.60;;;;;;5052848;28;20024;-71
2022/08/13 05:46:23;;;;;;;5.47;2.00;;;36.00;94.20;;;;;;5053157;28;20126;-71
2022/08/13 05:48:59;;;;;;;3.97;1.92;;;35.80;94.00;;;;;;5052285;28;20039;-71
2022/08/13 05:51:31;;;;;;;6.00;1.70;;;35.80;94.00;;;;;;5052869;28;20096;-71
2022/08/13 05:53:59;;;;;;;5.25;1.63;;;36.60;93.30;;;;;;5052742;28;20032;-71
2022/08/13 05:56:36;;;;;;;5.25;1.67;;;37.50;92.00;;;;;;5052711;28;20025;-71
2022/08/13 06:03:22;;;;;;;5.18;1.90;;;38.40;91.20;;;;;;5052591;28;20052;-72
2022/08/13 06:04:40;;;;;;;6.15;1.60;;;40.10;87.60;;;;;;5052803;28;20036;-71
2022/08/13 06:07:09;;;;;;;5.07;1.95;;;40.40;86.10;;;;;;5052067;28;20029;-72
2022/08/13 06:09:36;;;;;;;5.30;1.83;;;40.50;86.00;;;;;;5051800;28;20441;-71
2022/08/13 06:12:02;;;;;;;5.95;1.60;;;41.10;83.90;;;;;;5052385;28;20493;-72
2022/08/13 06:14:35;;;;;;;5.63;1.92;;;41.50;83.10;;;;;;5052444;28;20462;-72
2022/08/13 06:17:02;;;;;;;4.45;1.70;;;42.00;82.40;;;;;;5052492;28;20442;-72
2022/08/13 06:19:32;;;;;;;7.05;1.60;;;42.70;80.60;;;;;;5053261;28;20047;-72
2022/08/13 06:22:02;;;;;;;6.63;1.40;;;43.30;78.40;;;;;;5053213;28;20029;-72
2022/08/13 06:24:35;;;;;;;4.35;1.67;;;43.80;77.80;;;;;;5051551;28;20029;-72
2022/08/13 06:27:05;;;;;;;5.55;1.40;;;44.20;77.30;;;;;;5052621;28;20057;-72
2022/08/13 06:29:35;;;;;;;4.00;1.60;;;44.30;76.00;;;;;;5052704;28;20021;-72
2022/08/13 06:32:06;;;;;;;5.13;1.50;;;44.70;75.70;;;;;;5053337;28;20056;-72
2022/08/13 06:34:34;;;;;;;5.00;1.40;;;45.10;74.00;;;;;;5052753;28;20060;-72
2022/08/13 06:37:04;;;;;;;3.10;1.30;;;45.10;73.70;;;;;;5052620;28;20020;-72
2022/08/13 06:39:32;;;;;;;3.35;1.35;;;45.30;73.10;;;;;;5052647;28;20166;-72
2022/08/13 06:42:03;;;;;;;3.70;1.45;;;45.60;72.60;;;;;;5052664;28;20025;-72
2022/08/13 06:44:34;;;;;;;7.72;2.00;;;46.00;71.70;;;;;;5051349;28;20021;-72
2022/08/13 06:47:02;;;;;;;5.63;1.60;;;46.10;71.10;;;;;;5052971;28;20438;-72
2022/08/13 06:49:28;;;;;;;3.30;1.40;;;46.00;70.60;;;;;;5053075;28;20025;-72
2022/08/13 06:51:56;;;;;;;7.93;1.33;;;46.30;70.10;;;;;;5052556;28;20083;-72
2022/08/13 06:54:24;;;;;;;4.57;1.58;;;46.50;68.90;;;;;;5052422;28;20144;-72
2022/08/13 06:56:52;;;;;;;6.85;1.67;;;46.00;68.70;;;;;;5052437;28;20037;-72
2022/08/13 06:59:23;;;;;;;6.10;1.33;;;46.00;68.80;;;;;;5053944;28;20013;-72
2022/08/13 07:01:57;;;;;;;5.57;1.60;;;45.60;69.00;;;;;;5056583;28;20496;-72
2022/08/13 07:04:24;;;;;;;5.60;1.17;;;45.60;68.40;;;;;;5057042;28;20353;-72
2022/08/13 07:06:51;;;;;;;8.07;1.60;;;45.30;69.30;;;;;;5056501;28;20137;-72
2022/08/13 07:09:18;;;;;;;6.35;1.30;;;45.40;69.00;;;;;;5056475;28;20052;-72
2022/08/13 07:11:45;;;;;;;6.85;1.77;;;45.90;68.30;;;;;;5056521;28;20114;-72
2022/08/13 07:14:13;;;;;;;7.15;1.50;;;46.20;68.00;;;;;;5056178;28;20116;-72
2022/08/13 07:16:42;;;;;;;3.75;1.40;;;45.50;68.70;;;;;;5056430;28;20025;-72
2022/08/13 07:19:08;;;;;;;5.57;1.50;;;45.30;69.80;;;;;;5056712;28;20365;-72
2022/08/13 07:21:35;;;;;;;7.00;1.60;;;45.20;69.30;;;;;;5056007;28;20067;-72
2022/08/13 07:24:02;;;;;;;6.90;1.45;;;45.00;69.20;;;;;;5056321;28;20538;-72
2022/08/13 07:26:31;;;;;;;5.43;1.70;;;44.50;70.30;;;;;;5055651;28;20052;-72
2022/08/13 07:28:57;;;;;;;3.28;1.50;;;44.20;71.30;;;;;;5056348;28;20029;-72
2022/08/13 07:31:34;;;;;;;4.07;1.60;;;42.80;72.10;;;;;;5055940;28;20050;-71
2022/08/13 07:34:04;;;;;;;8.13;1.73;;;41.60;74.00;;;;;;5056429;28;20029;-71
2022/08/13 07:36:36;;;;;;;7.93;2.25;;;39.90;77.50;;;;;;5055831;28;20539;-71
2022/08/13 07:39:09;;;;;;;8.23;2.42;;;39.30;80.70;;;;;;5055709;28;20462;-71
2022/08/13 07:41:45;;;;;;;6.53;1.92;;;38.40;82.60;;;;;;5055354;28;20108;-71
2022/08/13 07:44:22;;;;;;;7.53;2.30;;;38.10;84.20;;;;;;5055346;28;20043;-71
2022/08/13 07:46:53;;;;;;;6.47;2.10;;;37.90;85.40;;;;;;5055163;28;20037;-71
2022/08/13 07:49:20;;;;;;;5.55;2.10;;;37.20;88.20;;;;;;5053506;28;20086;-71
2022/08/13 07:51:48;;;;;;;7.07;1.92;;;36.90;90.00;;;;;;5054730;28;20100;-71
2022/08/13 07:54:15;;;;;;;5.80;1.90;;;36.70;90.50;;;;;;5054580;28;20111;-72
2022/08/13 07:56:47;;;;;;;5.82;2.13;;;35.70;91.60;;;;;;5054734;28;20025;-72
2022/08/13 07:59:17;;;;;;;4.82;2.10;;;35.60;92.10;;;;;;5055102;28;20478;-71
2022/08/13 08:01:49;;;;;;;4.72;2.00;;;35.40;91.90;;;;;;5054735;28;20422;-72
2022/08/13 08:04:17;;;;;;;4.47;1.88;;;35.50;92.50;;;;;;5054561;28;20021;-71
2022/08/13 08:06:48;;;;;;;6.05;2.20;;;35.40;91.40;;;;;;5054309;28;20119;-71
2022/08/13 08:09:31;;;;;;;6.43;2.00;;;35.60;90.70;;;;;;5052792;28;20370;-71
2022/08/13 08:14:50;;;;;;;9.00;2.28;;;36.10;91.90;;;;;;5054766;28;20078;-71
2022/08/13 08:17:18;;;;;;;9.18;2.10;;;36.40;91.80;;;;;;5054799;28;20052;-71
2022/08/13 08:19:50;;;;;;;6.53;2.10;;;36.40;91.60;;;;;;5055380;28;20058;-71
2022/08/13 08:22:17;;;;;;;5.82;1.80;;;35.80;92.20;;;;;;5055545;28;20043;-71
2022/08/13 08:24:48;;;;;;;6.55;1.88;;;35.60;92.80;;;;;;5055243;28;20028;-71
2022/08/13 08:27:16;;;;;;;3.67;1.77;;;35.70;93.00;;;;;;5054889;28;20450;-72
2022/08/13 08:29:44;;;;;;;5.25;1.83;;;35.70;93.00;;;;;;5054921;28;20370;-72
2022/08/13 08:32:12;;;;;;;27.65;3.20;;;35.60;93.30;;;;;;5053438;28;20021;-71
2022/08/13 08:34:45;;;;;;;4.53;1.98;;;35.40;93.40;;;;;;5054670;28;20045;-71
2022/08/13 08:43:00;;;;;;;3.75;2.00;;;35.40;93.90;;;;;;5055229;28;20147;-72
2022/08/13 08:45:27;;;;;;;4.68;1.83;;;35.20;93.80;;;;;;5055049;28;20021;-72
2022/08/13 08:47:53;;;;;;;5.70;2.13;;;34.60;94.20;;;;;;5054636;28;20033;-71
2022/08/13 08:50:26;;;;;;;7.05;2.05;;;34.40;94.80;;;;;;5054350;28;20461;-71
2022/08/13 08:55:39;;;;;;;3.97;2.10;;;33.90;95.80;;;;;;5053769;28;20043;-72
2022/08/13 08:58:07;;;;;;;5.93;2.22;;;34.20;95.80;;;;;;5054066;28;20036;-71
2022/08/13 09:00:38;;;;;;;5.57;2.13;;;34.20;95.70;;;;;;5053570;28;20440;-71
2022/08/13 09:03:05;;;;;;;5.15;1.98;;;34.20;95.70;;;;;;5054081;28;20385;-71
2022/08/13 09:05:31;;;;;;;4.32;1.95;;;34.50;95.80;;;;;;5053532;28;20021;-72
2022/08/13 09:08:03;;;;;;;6.00;2.00;;;34.90;95.80;;;;;;5052062;28;20491;-71
2022/08/13 09:10:34;;;;;;;5.90;1.90;;;35.00;95.90;;;;;;5053762;28;20021;-71
2022/08/13 09:13:02;;;;;;;7.55;2.20;;;35.00;95.80;;;;;;5054023;28;20430;-71
2022/08/13 09:15:31;;;;;;;8.63;1.90;;;34.70;96.00;;;;;;5053874;28;20017;-71
2022/08/13 09:17:58;;;;;;;4.68;1.90;;;35.00;96.20;;;;;;5053940;28;20080;-71
2022/08/13 09:20:26;;;;;;;3.63;1.70;;;34.90;96.30;;;;;;5053168;28;20147;-71
2022/08/13 09:23:04;;;;;;;14.38;2.40;;;34.90;96.40;;;;;;5052709;28;20021;-71
2022/08/13 09:25:30;;;;;;;5.70;1.80;;;34.70;96.80;;;;;;5052962;28;20051;-71
2022/08/13 09:27:57;;;;;;;7.53;2.20;;;34.50;97.00;;;;;;5053123;28;20044;-72
2022/08/13 09:30:24;;;;;;;6.28;1.92;;;34.20;97.50;;;;;;5053203;28;20053;-71
2022/08/13 09:32:56;;;;;;;4.53;1.98;;;34.30;97.50;;;;;;5051793;28;20024;-71
2022/08/13 09:35:25;;;;;;;6.72;2.63;;;34.00;98.40;;;;;;5053011;28;20060;-72
2022/08/13 09:37:56;;;;;;;4.30;2.00;;;33.90;98.80;;;;;;5052898;28;20024;-71
2022/08/13 09:40:27;;;;;;;11.18;2.20;;;34.00;99.00;;;;;;5053158;28;20562;-71
2022/08/13 09:42:59;;;;;;;7.30;2.20;;;33.90;99.50;;;;;;5053087;28;20322;-71
2022/08/13 09:45:27;;;;;;;4.72;2.15;;;33.90;99.60;;;;;;5053130;28;20078;-71
2022/08/13 09:47:54;;;;;;;4.82;2.15;;;33.90;99.70;;;;;;5052782;28;20036;-72
2022/08/13 09:50:23;;;;;;;5.75;2.40;;;34.10;99.80;;;;;;5052768;28;20025;-71
2022/08/13 09:52:52;;;;;;;5.43;2.17;;;33.90;99.90;;;;;;5052993;28;20029;-71
2022/08/13 09:55:25;;;;;;;3.95;2.30;;;33.90;99.90;;;;;;5052528;28;20028;-71
2022/08/13 09:57:53;;;;;;;5.88;2.20;;;33.90;99.90;;;;;;5052845;28;20021;-71
2022/08/13 10:00:24;;;;;;;7.15;2.33;;;33.80;99.90;;;;;;5052396;28;20501;-71
2022/08/13 10:02:57;;;;;;;6.45;2.33;;;33.50;99.90;;;;;;5053130;28;20061;-71
2022/08/13 10:05:26;;;;;;;5.35;2.20;;;33.30;99.90;;;;;;5052328;28;20025;-71
2022/08/13 10:07:53;;;;;;;7.38;2.25;;;33.20;99.90;;;;;;5052265;28;20118;-71
2022/08/13 10:10:20;;;;;;;6.60;2.42;;;33.00;99.90;;;;;;5052766;28;20068;-71
2022/08/13 10:12:46;;;;;;;11.60;2.50;;;32.90;99.90;;;;;;5052582;28;20096;-71
2022/08/13 10:15:12;;;;;;;;;;;33.00;99.90;;;;;;5052995;28;20540;-71
2022/08/13 10:17:58;;;;;;;6.05;2.20;;;33.00;99.90;;;;;;5052114;28;19912;-71
2022/08/13 10:20:38;;;;;;;;;;;33.00;99.90;;;;;;5051059;28;20028;-71
2022/08/13 10:23:08;;;;;;;5.43;2.35;;;32.90;99.90;;;;;;5052130;28;19911;-71
2022/08/13 10:25:40;;;;;;;6.30;2.63;;;32.80;99.90;;;;;;5052353;28;20032;-72
2022/08/13 10:28:22;;;;;;;6.97;2.90;;;32.60;99.90;;;;;;5052357;28;20111;-71
2022/08/13 10:30:48;;;;;;;11.43;2.85;;;32.50;99.90;;;;;;5051479;28;20097;-71
2022/08/13 10:33:16;;;;;;;4.78;2.28;;;32.30;99.90;;;;;;5051085;28;20048;-71
2022/08/13 10:35:51;;;;;;;6.15;2.78;;;32.50;99.90;;;;;;5051736;28;20047;-72
2022/08/13 10:38:20;;;;;;;10.45;2.63;;;32.40;99.90;;;;;;5051756;28;20135;-72
2022/08/13 10:40:46;;;;;;;8.50;2.92;;;32.40;99.90;;;;;;5051802;28;20444;-71
2022/08/13 10:43:14;;;;;;;10.75;2.90;;;32.50;99.90;;;;;;5051418;28;20101;-71
2022/08/13 10:45:46;;;;;;;8.63;2.80;;;32.60;99.90;;;;;;5051684;28;20033;-71
2022/08/13 10:48:13;;;;;;;8.35;2.97;;;32.70;99.90;;;;;;5051468;28;20500;-71
2022/08/13 10:50:41;;;;;;;7.43;3.10;;;32.70;99.90;;;;;;5052200;28;20029;-71
2022/08/13 10:53:07;;;;;;;14.45;2.90;;;32.80;99.90;;;;;;5051687;28;20029;-71
2022/08/13 10:55:35;;;;;;;6.78;2.50;;;33.00;99.90;;;;;;5052255;28;20529;-71
2022/08/13 10:58:13;;;;;;;7.30;2.78;;;33.10;99.90;;;;;;5051987;28;20037;-71
2022/08/13 11:00:39;;;;;;;6.75;2.65;;;33.10;99.90;;;;;;5052443;28;20082;-71
2022/08/13 11:03:05;;;;;;;6.30;2.70;;;33.00;99.90;;;;;;5051940;28;20052;-71
2022/08/13 11:05:31;;;;;;;8.40;2.70;;;32.70;99.90;;;;;;5052310;28;20421;-71
2022/08/13 11:07:58;;;;;;;5.20;3.00;;;32.50;99.90;;;;;;5052394;28;20136;-72
2022/08/13 11:10:24;;;;;;;5.53;2.70;;;32.50;99.90;;;;;;5052153;28;20025;-72
2022/08/13 11:12:50;;;;;;;6.15;2.60;;;32.70;99.90;;;;;;5052666;28;20055;-71
2022/08/13 11:15:21;;;;;;;;;;;32.80;99.90;;;;;;5052921;28;20063;-73
2022/08/13 11:17:53;;;;;;;7.85;2.90;;;32.80;99.90;;;;;;5052273;28;20026;-71
2022/08/13 11:20:22;;;;;;;11.95;3.03;;;32.80;99.90;;;;;;5052497;28;20037;-70
2022/08/13 11:22:50;;;;;;;6.38;2.80;;;32.60;99.90;;;;;;5052516;28;20540;-71
2022/08/13 11:25:17;;;;;;;6.65;2.85;;;32.40;99.90;;;;;;5052472;28;20207;-72
2022/08/13 11:27:44;;;;;;;9.10;2.90;;;32.60;99.90;;;;;;5052308;28;20139;-73
2022/08/13 11:30:11;;;;;;;5.65;2.80;;;32.60;99.90;;;;;;5052528;28;20381;-72
2022/08/13 11:32:37;;;;;;;12.45;3.08;;;32.60;99.90;;;;;;5050881;28;20492;-71
2022/08/13 11:35:06;;;;;;;;;;;32.80;99.90;;;;;;5052754;28;20386;-71
2022/08/13 11:37:32;;;;;;;7.30;2.95;;;32.70;99.90;;;;;;5051986;28;19950;-70
2022/08/13 11:39:58;;;;;;;5.53;2.72;;;32.50;99.90;;;;;;5052924;28;20044;-70
2022/08/13 11:42:24;;;;;;;;;;;32.40;99.90;;;;;;5053079;28;20140;-70
2022/08/13 11:44:50;;;;;;;6.90;3.10;;;32.50;99.90;;;;;;5052484;28;20024;-70
2022/08/13 11:47:16;;;;;;;7.07;2.65;;;32.50;99.90;;;;;;5055537;28;20041;-70
2022/08/13 11:49:42;;;;;;;;;;;32.70;99.90;;;;;;5056208;28;20025;-70
2022/08/13 11:52:08;;;;;;;8.05;2.65;;;32.70;99.90;;;;;;5054182;28;19999;-70
2022/08/13 11:54:34;;;;;;;;;;;32.50;99.90;;;;;;5055525;28;20021;-70
2022/08/13 11:57:02;;;;;;;5.28;2.63;;;32.60;99.90;;;;;;5054679;28;19962;-70
2022/08/13 11:59:28;;;;;;;8.73;2.60;;;32.70;99.90;;;;;;5054682;28;20040;-70
2022/08/13 12:01:54;;;;;;;23.65;3.67;;;32.60;99.90;;;;;;5054687;28;20044;-70
2022/08/13 12:04:20;;;;;;;10.20;2.30;;;32.40;99.90;;;;;;5053508;28;20025;-69
2022/08/13 12:06:46;;;;;;;4.65;2.40;;;32.40;99.90;;;;;;5054659;28;20485;-70
2022/08/13 12:09:12;;;;;;;;;;;32.60;99.90;;;;;;5055320;28;20439;-69
2022/08/13 12:11:38;;;;;;;6.72;2.33;;;32.60;99.90;;;;;;5054543;28;19904;-71
2022/08/13 12:14:04;;;;;;;;;;;32.70;99.60;;;;;;5054957;28;20020;-70
2022/08/13 12:16:30;;;;;;;7.95;2.88;;;32.80;99.30;;;;;;5054987;28;20262;-69
2022/08/13 12:18:56;;;;;;;5.30;2.70;;;32.60;99.90;;;;;;5055249;28;20048;-69
2022/08/13 12:21:22;;;;;;;;;;;32.70;99.90;;;;;;5056221;28;20032;-69
2022/08/13 12:23:48;;;;;;;12.80;3.00;;;32.60;99.70;;;;;;5055194;28;19905;-69
2022/08/13 12:26:14;;;;;;;;;;;32.60;99.60;;;;;;5055365;28;20409;-69
2022/08/13 12:28:40;;;;;;;8.02;3.00;;;32.70;99.60;;;;;;5055038;28;19920;-69
2022/08/13 12:31:07;;;;;;;;;;;32.60;99.00;;;;;;5055602;28;20025;-69
2022/08/13 12:33:35;;;;;;;9.85;3.15;;;32.40;99.90;;;;;;5055836;28;19979;-69
2022/08/13 12:36:02;;;;;;;9.55;3.70;;;32.50;99.80;;;;;;5054903;28;20029;-69
2022/08/13 12:38:28;;;;;;;9.90;3.28;;;32.70;99.70;;;;;;5055095;28;20031;-69
2022/08/13 12:40:55;;;;;;;6.80;3.03;;;32.80;99.90;;;;;;5055012;28;20033;-69
2022/08/13 12:43:21;;;;;;;6.50;2.88;;;32.80;99.90;;;;;;5054646;28;20043;-69
2022/08/13 12:45:47;;;;;;;;;;;32.70;99.90;;;;;;5054923;28;20021;-69
2022/08/13 12:48:15;;;;;;;6.50;2.55;;;32.80;99.60;;;;;;5054745;28;19974;-71
2022/08/13 12:50:50;;;;;;;8.05;2.45;;;32.70;99.80;;;;;;5054928;28;20025;-69
2022/08/13 12:53:17;;;;;;;4.82;2.50;;;32.50;99.90;;;;;;5054914;28;20461;-69
2022/08/13 12:55:45;;;;;;;6.25;3.00;;;32.40;99.90;;;;;;5053150;28;20039;-70
2022/08/13 12:58:14;;;;;;;5.38;2.40;;;32.40;99.90;;;;;;5054139;28;20049;-70
2022/08/13 13:00:41;;;;;;;4.72;2.33;;;32.50;99.90;;;;;;5054863;28;20129;-69
2022/08/13 13:03:08;;;;;;;4.70;2.75;;;32.60;99.90;;;;;;5054423;28;20029;-70
2022/08/13 13:05:34;;;;;;;7.10;2.75;;;32.40;99.90;;;;;;5054847;28;20072;-69
2022/08/13 13:08:00;;;;;;;;;;;32.40;99.90;;;;;;5053392;28;20039;-69
2022/08/13 13:10:26;;;;;;;7.40;2.75;;;32.20;99.90;;;;;;5054276;28;19904;-70
2022/08/13 13:12:52;;;;;;;7.20;2.47;;;32.30;99.90;;;;;;5054771;28;20056;-70
2022/08/13 13:15:18;;;;;;;5.93;2.85;;;32.40;99.90;;;;;;5054368;28;20107;-70
2022/08/13 13:17:44;;;;;;;;;;;32.50;99.90;;;;;;5055109;28;20040;-70
2022/08/13 13:20:10;;;;;;;7.50;3.30;;;32.50;99.90;;;;;;5054284;28;19904;-70
2022/08/13 13:22:37;;;;;;;6.80;3.15;;;32.60;99.90;;;;;;5052774;28;20392;-70
2022/08/13 13:25:03;;;;;;;;;;;32.80;99.90;;;;;;5054464;28;20032;-70
2022/08/13 13:27:30;;;;;;;7.45;2.85;;;32.70;99.90;;;;;;5053867;28;20003;-70